createdAt,value
2023-05-03T00:00:05.743Z,929.00
2023-05-03T00:01:05.514Z,935.00
2023-05-03T00:02:05.581Z,929.00
2023-05-03T00:03:05.612Z,930.00
2023-05-03T00:04:05.539Z,948.00
2023-05-03T00:05:06.814Z,944.00
2023-05-03T00:06:05.687Z,942.00
2023-05-03T00:07:05.592Z,945.00
2023-05-03T00:08:05.584Z,939.00
2023-05-03T00:09:05.590Z,946.00
2023-05-03T00:10:05.804Z,929.00
2023-05-03T00:11:05.566Z,929.00
2023-05-03T00:12:05.560Z,923.00
2023-05-03T00:13:05.549Z,931.00
2023-05-03T00:14:05.564Z,918.00
2023-05-03T00:15:05.593Z,926.00
2023-05-03T00:16:05.612Z,919.00
2023-05-03T00:17:05.721Z,920.00
2023-05-03T00:18:05.576Z,913.00
2023-05-03T00:19:05.558Z,921.00
2023-05-03T00:20:05.699Z,909.00
2023-05-03T00:21:05.583Z,918.00
2023-05-03T00:22:05.577Z,916.00
2023-05-03T00:23:05.596Z,914.00
2023-05-03T00:24:05.605Z,913.00
2023-05-03T00:25:05.626Z,933.00
2023-05-03T00:26:05.574Z,923.00
2023-05-03T00:27:05.585Z,928.00
2023-05-03T00:28:05.576Z,933.00
2023-05-03T00:29:06.728Z,937.00
2023-05-03T00:30:05.818Z,947.00
2023-05-03T00:31:06.834Z,950.00
2023-05-03T00:32:05.608Z,952.00
2023-05-03T00:33:05.627Z,963.00
2023-05-03T00:34:05.555Z,959.00
2023-05-03T00:35:05.581Z,965.00
2023-05-03T00:36:05.589Z,985.00
2023-05-03T00:37:05.536Z,972.00
2023-05-03T00:38:05.559Z,976.00
2023-05-03T00:39:05.539Z,982.00
2023-05-03T00:40:06.167Z,982.00
2023-05-03T00:41:05.505Z,980.00
2023-05-03T00:42:05.499Z,982.00
2023-05-03T00:43:05.526Z,980.00
2023-05-03T00:44:05.538Z,1001.00
2023-05-03T00:45:05.490Z,991.00
2023-05-03T00:46:15.955Z,984.00
2023-05-03T00:47:06.565Z,985.00
2023-05-03T00:48:05.580Z,984.00
2023-05-03T00:49:05.510Z,979.00
2023-05-03T00:50:05.813Z,963.00
2023-05-03T00:51:05.448Z,970.00
2023-05-03T00:52:05.465Z,968.00
2023-05-03T00:53:05.444Z,948.00
2023-05-03T00:54:05.462Z,963.00
2023-05-03T00:55:05.435Z,958.00
2023-05-03T00:56:05.441Z,936.00
2023-05-03T00:57:05.417Z,952.00
2023-05-03T00:58:05.402Z,943.00
2023-05-03T00:59:05.440Z,942.00
2023-05-03T01:00:05.646Z,942.00
2023-05-03T01:01:05.400Z,939.00
2023-05-03T01:02:05.512Z,934.00
2023-05-03T01:03:05.412Z,940.00
2023-05-03T01:04:05.423Z,917.00
2023-05-03T01:05:05.344Z,928.00
2023-05-03T01:06:05.355Z,922.00
2023-05-03T01:07:05.339Z,909.00
2023-05-03T01:08:05.308Z,913.00
2023-05-03T01:09:05.344Z,915.00
2023-05-03T01:10:05.532Z,913.00
2023-05-03T01:11:05.289Z,907.00
2023-05-03T01:12:05.294Z,898.00
2023-05-03T01:13:05.270Z,904.00
2023-05-03T01:14:05.312Z,899.00
2023-05-03T01:15:05.278Z,902.00
2023-05-03T01:16:05.280Z,910.00
2023-05-03T01:17:05.289Z,887.00
2023-05-03T01:18:05.298Z,881.00
2023-05-03T01:19:05.277Z,885.00
2023-05-03T01:20:05.722Z,869.00
2023-05-03T01:21:05.229Z,880.00
2023-05-03T01:22:05.235Z,881.00
2023-05-03T01:23:05.192Z,878.00
2023-05-03T01:24:05.238Z,872.00
2023-05-03T01:25:05.275Z,882.00
2023-05-03T01:26:05.196Z,871.00
2023-05-03T01:27:05.216Z,879.00
2023-05-03T01:28:05.230Z,876.00
2023-05-03T01:29:05.202Z,883.00
2023-05-03T01:30:05.435Z,875.00
2023-05-03T01:31:05.188Z,876.00
2023-05-03T01:32:05.187Z,866.00
2023-05-03T01:33:05.236Z,854.00
2023-05-03T01:34:05.193Z,856.00
2023-05-03T01:35:05.348Z,858.00
2023-05-03T01:36:05.233Z,858.00
2023-05-03T01:37:05.226Z,849.00
2023-05-03T01:38:05.213Z,844.00
2023-05-03T01:39:05.235Z,844.00
2023-05-03T01:40:05.751Z,858.00
2023-05-03T01:41:05.223Z,845.00
2023-05-03T01:42:05.258Z,824.00
2023-05-03T01:43:05.262Z,838.00
2023-05-03T01:44:05.199Z,856.00
2023-05-03T01:45:05.245Z,854.00
2023-05-03T01:46:05.238Z,854.00
2023-05-03T01:47:05.240Z,848.00
2023-05-03T01:48:05.244Z,860.00
2023-05-03T01:49:05.199Z,881.00
2023-05-03T01:50:05.440Z,892.00
2023-05-03T01:51:05.189Z,896.00
2023-05-03T01:52:05.184Z,898.00
2023-05-03T01:53:05.186Z,899.00
2023-05-03T01:54:05.199Z,923.00
2023-05-03T01:55:05.203Z,913.00
2023-05-03T01:56:05.154Z,911.00
2023-05-03T01:57:05.175Z,912.00
2023-05-03T01:58:05.162Z,909.00
2023-05-03T01:59:05.174Z,912.00
2023-05-03T02:00:05.429Z,898.00
2023-05-03T02:01:05.231Z,890.00
2023-05-03T02:02:05.142Z,863.00
2023-05-03T02:03:05.156Z,866.00
2023-05-03T02:04:05.271Z,853.00
2023-05-03T02:05:05.127Z,866.00
2023-05-03T02:06:05.183Z,841.00
2023-05-03T02:07:05.146Z,841.00
2023-05-03T02:08:05.125Z,821.00
2023-05-03T02:09:05.138Z,822.00
2023-05-03T02:10:05.478Z,824.00
2023-05-03T02:11:05.165Z,802.00
2023-05-03T02:12:05.114Z,803.00
2023-05-03T02:13:05.125Z,796.00
2023-05-03T02:14:05.152Z,787.00
2023-05-03T02:15:05.157Z,765.00
2023-05-03T02:16:05.127Z,763.00
2023-05-03T02:17:05.136Z,729.00
2023-05-03T02:18:05.143Z,740.00
2023-05-03T02:19:05.115Z,737.00
2023-05-03T02:20:05.339Z,726.00
2023-05-03T02:21:05.120Z,726.00
2023-05-03T02:22:05.115Z,723.00
2023-05-03T02:23:05.145Z,707.00
2023-05-03T02:24:05.133Z,715.00
2023-05-03T02:25:05.119Z,720.00
2023-05-03T02:26:05.065Z,741.00
2023-05-03T02:27:05.147Z,756.00
2023-05-03T02:28:05.065Z,773.00
2023-05-03T02:29:05.075Z,797.00
2023-05-03T02:30:05.346Z,813.00
2023-05-03T02:31:05.105Z,830.00
2023-05-03T02:32:05.088Z,836.00
2023-05-03T02:33:05.090Z,871.00
2023-05-03T02:34:05.126Z,859.00
2023-05-03T02:35:05.083Z,878.00
2023-05-03T02:36:05.045Z,891.00
2023-05-03T02:37:05.102Z,900.00
2023-05-03T02:38:05.070Z,909.00
2023-05-03T02:39:05.075Z,913.00
2023-05-03T02:40:05.220Z,927.00
2023-05-03T02:41:05.064Z,920.00
2023-05-03T02:42:05.069Z,935.00
2023-05-03T02:43:05.039Z,943.00
2023-05-03T02:44:05.070Z,951.00
2023-05-03T02:45:05.098Z,939.00
2023-05-03T02:46:05.093Z,946.00
2023-05-03T02:47:05.041Z,943.00
2023-05-03T02:48:05.121Z,937.00
2023-05-03T02:49:05.048Z,949.00
2023-05-03T02:50:05.263Z,929.00
2023-05-03T02:51:05.035Z,924.00
2023-05-03T02:52:05.065Z,899.00
2023-05-03T02:53:05.025Z,904.00
2023-05-03T02:54:05.033Z,915.00
2023-05-03T02:55:05.009Z,910.00
2023-05-03T02:56:04.992Z,894.00
2023-05-03T02:57:05.001Z,895.00
2023-05-03T02:58:05.017Z,902.00
2023-05-03T02:59:05.021Z,900.00
2023-05-03T03:00:05.149Z,901.00
2023-05-03T03:01:04.990Z,899.00
2023-05-03T03:02:05.007Z,885.00
2023-05-03T03:03:05.062Z,894.00
2023-05-03T03:04:05.075Z,910.00
2023-05-03T03:05:04.998Z,904.00
2023-05-03T03:06:05.014Z,909.00
2023-05-03T03:07:04.977Z,914.00
2023-05-03T03:08:04.974Z,916.00
2023-05-03T03:09:04.948Z,922.00
2023-05-03T03:10:05.232Z,934.00
2023-05-03T03:11:04.966Z,906.00
2023-05-03T03:12:04.981Z,911.00
2023-05-03T03:13:04.956Z,898.00
2023-05-03T03:14:04.952Z,883.00
2023-05-03T03:15:04.962Z,889.00
2023-05-03T03:16:05.015Z,876.00
2023-05-03T03:17:04.932Z,885.00
2023-05-03T03:18:04.961Z,874.00
2023-05-03T03:19:04.996Z,851.00
2023-05-03T03:20:05.164Z,862.00
2023-05-03T03:21:04.946Z,863.00
2023-05-03T03:22:04.954Z,857.00
2023-05-03T03:23:04.945Z,844.00
2023-05-03T03:24:05.016Z,851.00
2023-05-03T03:25:04.939Z,810.00
2023-05-03T03:26:04.905Z,826.00
2023-05-03T03:27:04.920Z,832.00
2023-05-03T03:28:04.896Z,813.00
2023-05-03T03:29:04.943Z,809.00
2023-05-03T03:30:05.191Z,809.00
2023-05-03T03:31:04.945Z,811.00
2023-05-03T03:32:04.936Z,804.00
2023-05-03T03:33:04.944Z,808.00
2023-05-03T03:34:04.914Z,795.00
2023-05-03T03:35:04.911Z,779.00
2023-05-03T03:36:04.900Z,783.00
2023-05-03T03:37:04.938Z,770.00
2023-05-03T03:38:04.867Z,765.00
2023-05-03T03:39:04.914Z,759.00
2023-05-03T03:40:05.200Z,764.00
2023-05-03T03:41:04.867Z,752.00
2023-05-03T03:42:04.886Z,740.00
2023-05-03T03:43:04.861Z,728.00
2023-05-03T03:44:04.856Z,743.00
2023-05-03T03:45:04.851Z,754.00
2023-05-03T03:46:04.848Z,748.00
2023-05-03T03:47:04.915Z,738.00
2023-05-03T03:48:04.906Z,731.00
2023-05-03T03:49:04.904Z,742.00
2023-05-03T03:50:05.149Z,729.00
2023-05-03T03:51:04.855Z,745.00
2023-05-03T03:52:04.903Z,752.00
2023-05-03T03:53:04.901Z,741.00
2023-05-03T03:54:04.963Z,747.00
2023-05-03T03:55:04.984Z,749.00
2023-05-03T03:56:05.055Z,742.00
2023-05-03T03:57:05.117Z,758.00
2023-05-03T03:58:05.127Z,728.00
2023-05-03T03:59:05.195Z,727.00
2023-05-03T04:00:05.410Z,732.00
2023-05-03T04:01:05.274Z,727.00
2023-05-03T04:02:05.380Z,738.00
2023-05-03T04:03:07.582Z,726.00
2023-05-03T04:04:05.444Z,728.00
2023-05-03T04:05:05.408Z,719.00
2023-05-03T04:06:05.355Z,724.00
2023-05-03T04:07:05.321Z,720.00
2023-05-03T04:08:05.284Z,725.00
2023-05-03T04:09:05.347Z,714.00
2023-05-03T04:10:05.646Z,717.00
2023-05-03T04:11:05.293Z,719.00
2023-05-03T04:12:05.302Z,731.00
2023-05-03T04:13:05.280Z,726.00
2023-05-03T04:14:05.267Z,713.00
2023-05-03T04:15:05.296Z,718.00
2023-05-03T04:16:05.255Z,722.00
2023-05-03T04:17:05.267Z,726.00
2023-05-03T04:18:05.302Z,736.00
2023-05-03T04:19:05.222Z,731.00
2023-05-03T04:20:05.407Z,738.00
2023-05-03T04:21:05.224Z,754.00
2023-05-03T04:22:05.209Z,741.00
2023-05-03T04:23:05.184Z,752.00
2023-05-03T04:24:05.207Z,754.00
2023-05-03T04:25:05.155Z,766.00
2023-05-03T04:26:05.476Z,764.00
2023-05-03T04:27:05.183Z,769.00
2023-05-03T04:28:05.150Z,760.00
2023-05-03T04:29:05.150Z,756.00
2023-05-03T04:30:05.353Z,762.00
2023-05-03T04:31:05.162Z,775.00
2023-05-03T04:32:05.121Z,774.00
2023-05-03T04:33:05.148Z,789.00
2023-05-03T04:34:05.194Z,800.00
2023-05-03T04:35:05.177Z,807.00
2023-05-03T04:36:05.074Z,828.00
2023-05-03T04:37:05.210Z,835.00
2023-05-03T04:38:05.153Z,835.00
2023-05-03T04:39:05.221Z,846.00
2023-05-03T04:40:05.523Z,838.00
2023-05-03T04:41:05.366Z,849.00
2023-05-03T04:42:05.443Z,835.00
2023-05-03T04:43:05.494Z,857.00
2023-05-03T04:44:05.580Z,853.00
2023-05-03T04:45:05.614Z,869.00
2023-05-03T04:46:05.769Z,856.00
2023-05-03T04:47:05.725Z,867.00
2023-05-03T04:48:05.855Z,868.00
2023-05-03T04:49:05.863Z,891.00
2023-05-03T04:50:06.112Z,902.00
2023-05-03T04:51:05.892Z,918.00
2023-05-03T04:52:05.968Z,917.00
2023-05-03T04:53:06.019Z,917.00
2023-05-03T04:54:06.052Z,925.00
2023-05-03T04:55:06.062Z,921.00
2023-05-03T04:56:06.076Z,907.00
2023-05-03T04:57:06.045Z,913.00
2023-05-03T04:58:06.083Z,957.00
2023-05-03T04:59:06.057Z,1211.00
2023-05-03T05:00:06.308Z,1618.00
2023-05-03T05:01:13.780Z,1966.00
2023-05-03T05:02:06.138Z,1974.00
2023-05-03T05:03:06.096Z,2024.00
2023-05-03T05:04:06.231Z,2113.00
2023-05-03T05:05:06.024Z,2231.00
2023-05-03T05:06:06.066Z,2356.00
2023-05-03T05:07:06.020Z,2177.00
2023-05-03T05:08:06.013Z,1905.00
2023-05-03T05:09:06.062Z,1713.00
2023-05-03T05:10:06.199Z,1543.00
2023-05-03T05:11:06.008Z,1454.00
2023-05-03T05:12:05.966Z,1324.00
2023-05-03T05:13:05.992Z,1153.00
2023-05-03T05:14:05.978Z,1052.00
2023-05-03T05:15:05.976Z,969.00
2023-05-03T05:16:05.956Z,932.00
2023-05-03T05:17:06.742Z,897.00
2023-05-03T05:18:06.023Z,850.00
2023-05-03T05:19:05.950Z,767.00
2023-05-03T05:20:06.090Z,735.00
2023-05-03T05:21:05.892Z,696.00
2023-05-03T05:22:05.936Z,664.00
2023-05-03T05:23:05.905Z,647.00
2023-05-03T05:24:05.912Z,642.00
2023-05-03T05:25:05.904Z,642.00
2023-05-03T05:26:05.901Z,659.00
2023-05-03T05:27:05.895Z,658.00
2023-05-03T05:28:05.957Z,661.00
2023-05-03T05:29:06.026Z,665.00
2023-05-03T05:30:06.129Z,683.00
2023-05-03T05:31:06.137Z,653.00
2023-05-03T05:32:06.441Z,587.00
2023-05-03T05:33:06.205Z,556.00
2023-05-03T05:34:06.178Z,556.00
2023-05-03T05:35:06.234Z,613.00
2023-05-03T05:36:06.136Z,580.00
2023-05-03T05:37:06.174Z,566.00
2023-05-03T05:38:06.179Z,585.00
2023-05-03T05:39:06.693Z,624.00
2023-05-03T05:40:06.360Z,614.00
2023-05-03T05:41:06.581Z,610.00
2023-05-03T05:42:06.295Z,626.00
2023-05-03T05:43:06.356Z,652.00
2023-05-03T05:44:06.686Z,635.00
2023-05-03T05:45:06.435Z,606.00
2023-05-03T05:47:25.727Z,500.00
2023-05-03T05:48:25.418Z,500.00
2023-05-03T05:49:25.418Z,500.00
2023-05-03T05:50:25.420Z,500.00
2023-05-03T05:51:25.365Z,500.00
2023-05-03T05:52:25.451Z,505.00
2023-05-03T05:53:25.364Z,500.00
2023-05-03T05:54:25.337Z,500.00
2023-05-03T05:55:25.348Z,509.00
2023-05-03T05:56:25.355Z,518.00
2023-05-03T05:57:25.351Z,508.00
2023-05-03T05:58:25.355Z,503.00
2023-05-03T05:59:25.564Z,530.00
2023-05-03T06:00:25.325Z,543.00
2023-05-03T06:01:25.288Z,536.00
2023-05-03T06:02:25.359Z,530.00
2023-05-03T06:03:25.356Z,495.00
2023-05-03T06:04:25.612Z,502.00
2023-05-03T06:05:25.399Z,506.00
2023-05-03T06:06:25.451Z,507.00
2023-05-03T06:07:25.371Z,523.00
2023-05-03T06:08:25.264Z,521.00
2023-05-03T06:09:25.474Z,526.00
2023-05-03T06:10:25.284Z,557.00
2023-05-03T06:11:25.271Z,548.00
2023-05-03T06:12:25.224Z,543.00
2023-05-03T06:13:25.285Z,520.00
2023-05-03T06:14:25.273Z,501.00
2023-05-03T06:15:26.034Z,500.00
2023-05-03T06:16:25.274Z,500.00
2023-05-03T06:17:25.281Z,508.00
2023-05-03T06:18:25.183Z,532.00
2023-05-03T06:19:25.607Z,573.00
2023-05-03T06:20:25.184Z,602.00
2023-05-03T06:21:25.243Z,624.00
2023-05-03T06:22:25.243Z,658.00
2023-05-03T06:23:25.269Z,670.00
2023-05-03T06:24:25.590Z,663.00
2023-05-03T06:25:25.264Z,654.00
2023-05-03T06:26:25.352Z,663.00
2023-05-03T06:27:25.317Z,674.00
2023-05-03T06:28:25.376Z,678.00
2023-05-03T06:29:25.377Z,688.00
2023-05-03T06:30:25.400Z,682.00
2023-05-03T06:31:25.480Z,661.00
2023-05-03T06:32:25.415Z,623.00
2023-05-03T06:33:25.402Z,609.00
2023-05-03T06:34:25.455Z,606.00
2023-05-03T06:35:25.536Z,591.00
2023-05-03T06:36:25.570Z,556.00
2023-05-03T06:37:25.634Z,551.00
2023-05-03T06:38:25.667Z,546.00
2023-05-03T06:39:26.093Z,542.00
2023-05-03T06:40:25.796Z,582.00
2023-05-03T06:41:25.866Z,564.00
2023-05-03T06:42:25.900Z,566.00
2023-05-03T06:43:25.961Z,575.00
2023-05-03T06:44:26.008Z,589.00
2023-05-03T06:45:26.066Z,580.00
2023-05-03T06:46:26.162Z,577.00
2023-05-03T06:47:26.241Z,556.00
2023-05-03T06:48:26.334Z,538.00
2023-05-03T06:49:26.657Z,583.00
2023-05-03T06:50:26.259Z,630.00
2023-05-03T06:51:26.267Z,623.00
2023-05-03T06:52:26.303Z,591.00
2023-05-03T06:53:26.308Z,593.00
2023-05-03T06:54:26.308Z,600.00
2023-05-03T06:55:26.414Z,569.00
2023-05-03T06:56:26.449Z,536.00
2023-05-03T06:57:28.662Z,533.00
2023-05-03T06:58:26.604Z,535.00
2023-05-03T06:59:26.603Z,547.00
2023-05-03T07:00:26.602Z,538.00
2023-05-03T07:01:26.710Z,525.00
2023-05-03T07:02:26.732Z,489.00
2023-05-03T07:03:26.790Z,501.00
2023-05-03T07:04:26.743Z,507.00
2023-05-03T07:05:26.680Z,500.00
2023-05-03T07:06:26.696Z,500.00
2023-05-03T07:07:26.707Z,503.00
2023-05-03T07:08:26.734Z,500.00
2023-05-03T07:09:39.223Z,504.00
2023-05-03T07:10:30.170Z,504.00
2023-05-03T07:11:26.987Z,504.00
2023-05-03T07:12:26.682Z,505.00
2023-05-03T07:13:26.703Z,492.00
2023-05-03T07:14:26.654Z,475.00
2023-05-03T07:15:26.658Z,437.00
2023-05-03T07:16:26.667Z,468.00
2023-05-03T07:17:26.701Z,500.00
2023-05-03T07:18:26.662Z,500.00
2023-05-03T07:19:26.644Z,503.00
2023-05-03T07:20:26.638Z,511.00
2023-05-03T07:21:26.643Z,530.00
2023-05-03T07:22:26.609Z,554.00
2023-05-03T07:23:26.618Z,552.00
2023-05-03T07:24:26.602Z,574.00
2023-05-03T07:25:26.598Z,573.00
2023-05-03T07:26:26.626Z,591.00
2023-05-03T07:27:26.588Z,597.00
2023-05-03T07:28:26.589Z,603.00
2023-05-03T07:29:26.591Z,618.00
2023-05-03T07:30:26.553Z,619.00
2023-05-03T07:31:26.568Z,616.00
2023-05-03T07:32:26.623Z,631.00
2023-05-03T07:33:26.633Z,676.00
2023-05-03T07:34:26.516Z,772.00
2023-05-03T07:35:26.625Z,758.00
2023-05-03T07:36:26.563Z,844.00
2023-05-03T07:37:26.498Z,890.00
2023-05-03T07:38:26.495Z,879.00
2023-05-03T07:39:26.581Z,849.00
2023-05-03T07:40:26.606Z,830.00
2023-05-03T07:41:26.475Z,801.00
2023-05-03T07:42:26.429Z,757.00
2023-05-03T07:43:26.472Z,739.00
2023-05-03T07:44:26.478Z,771.00
2023-05-03T07:45:26.449Z,772.00
2023-05-03T07:46:26.526Z,703.00
2023-05-03T07:47:26.421Z,651.00
2023-05-03T07:48:26.404Z,649.00
2023-05-03T07:49:26.444Z,645.00
2023-05-03T07:50:26.466Z,591.00
2023-05-03T07:51:26.407Z,571.00
2023-05-03T07:52:26.384Z,575.00
2023-05-03T07:53:26.445Z,579.00
2023-05-03T07:54:26.360Z,606.00
2023-05-03T07:55:26.369Z,663.00
2023-05-03T07:56:26.381Z,701.00
2023-05-03T07:57:26.372Z,670.00
2023-05-03T07:58:38.877Z,638.00
2023-05-03T07:59:27.398Z,633.00
2023-05-03T08:00:26.639Z,638.00
2023-05-03T08:01:26.399Z,647.00
2023-05-03T08:02:26.432Z,660.00
2023-05-03T08:03:26.424Z,646.00
2023-05-03T08:04:26.739Z,656.00
2023-05-03T08:05:26.355Z,620.00
2023-05-03T08:06:26.377Z,658.00
2023-05-03T08:07:26.308Z,863.00
2023-05-03T08:08:26.294Z,1101.00
2023-05-03T08:09:26.292Z,962.00
2023-05-03T08:10:26.628Z,671.00
2023-05-03T08:11:26.325Z,590.00
2023-05-03T08:12:26.425Z,521.00
2023-05-03T08:13:26.399Z,496.00
2023-05-03T08:14:26.480Z,479.00
2023-05-03T08:15:26.603Z,451.00
2023-05-03T08:16:26.585Z,491.00
2023-05-03T08:17:26.554Z,491.00
2023-05-03T08:18:26.588Z,496.00
2023-05-03T08:19:26.616Z,497.00
2023-05-03T08:20:26.632Z,499.00
2023-05-03T08:21:26.667Z,489.00
2023-05-03T08:22:26.702Z,502.00
2023-05-03T08:23:26.698Z,498.00
2023-05-03T08:24:26.728Z,500.00
2023-05-03T08:25:26.969Z,500.00
2023-05-03T08:26:26.879Z,500.00
2023-05-03T08:27:26.928Z,502.00
2023-05-03T08:28:27.004Z,507.00
2023-05-03T08:29:27.751Z,519.00
2023-05-03T08:30:27.113Z,531.00
2023-05-03T08:31:27.720Z,561.00
2023-05-03T08:32:27.188Z,632.00
2023-05-03T08:33:27.247Z,1243.00
2023-05-03T08:34:27.197Z,1776.00
2023-05-03T08:35:27.675Z,1496.00
2023-05-03T08:36:27.242Z,1335.00
2023-05-03T08:37:27.278Z,838.00
2023-05-03T08:38:27.294Z,640.00
2023-05-03T08:39:27.329Z,569.00
2023-05-03T08:40:27.317Z,555.00
2023-05-03T08:41:28.585Z,535.00
2023-05-03T08:42:27.393Z,489.00
2023-05-03T08:43:27.403Z,497.00
2023-05-03T08:44:27.373Z,493.00
2023-05-03T08:45:27.327Z,500.00
2023-05-03T08:46:27.385Z,529.00
2023-05-03T08:47:27.411Z,541.00
2023-05-03T08:48:28.717Z,515.00
2023-05-03T08:49:27.333Z,516.00
2023-05-03T08:50:27.350Z,520.00
2023-05-03T08:51:27.689Z,572.00
2023-05-03T08:52:27.310Z,655.00
2023-05-03T08:53:27.290Z,988.00
2023-05-03T08:54:27.270Z,1414.00
2023-05-03T08:55:27.306Z,1753.00
2023-05-03T08:56:28.539Z,1997.00
2023-05-03T08:57:27.285Z,2139.00
2023-05-03T08:58:27.351Z,2348.00
2023-05-03T08:59:27.241Z,2459.00
2023-05-03T09:00:27.243Z,2581.00
2023-05-03T09:01:27.687Z,2567.00
2023-05-03T09:02:27.367Z,2527.00
2023-05-03T09:03:27.344Z,2535.00
2023-05-03T09:04:27.266Z,2438.00
2023-05-03T09:05:27.244Z,2385.00
2023-05-03T09:06:27.284Z,2370.00
2023-05-03T09:07:27.241Z,2401.00
2023-05-03T09:08:27.168Z,2407.00
2023-05-03T09:09:27.156Z,2433.00
2023-05-03T09:10:27.137Z,2462.00
2023-05-03T09:11:27.188Z,2515.00
2023-05-03T09:12:27.194Z,2542.00
2023-05-03T09:13:27.111Z,2457.00
2023-05-03T09:14:27.133Z,2506.00
2023-05-03T09:15:27.153Z,2460.00
2023-05-03T09:16:27.192Z,2534.00
2023-05-03T09:17:27.111Z,2611.00
2023-05-03T09:18:27.125Z,2584.00
2023-05-03T09:19:27.095Z,2562.00
2023-05-03T09:20:27.079Z,2724.00
2023-05-03T09:21:27.081Z,2969.00
2023-05-03T09:22:27.085Z,2902.00
2023-05-03T09:23:27.069Z,2979.00
2023-05-03T09:24:27.065Z,2971.00
2023-05-03T09:25:27.039Z,2770.00
2023-05-03T09:26:27.142Z,2516.00
2023-05-03T09:27:27.041Z,2397.00
2023-05-03T09:28:27.044Z,2358.00
2023-05-03T09:29:26.989Z,2217.00
2023-05-03T09:30:27.032Z,2158.00
2023-05-03T09:31:27.128Z,2884.00
2023-05-03T09:32:27.226Z,3028.00
2023-05-03T09:33:27.154Z,3172.00
2023-05-03T09:34:27.252Z,3270.00
2023-05-03T09:35:27.204Z,3354.00
2023-05-03T09:36:27.230Z,3151.00
2023-05-03T09:37:27.250Z,2861.00
2023-05-03T09:38:27.315Z,2736.00
2023-05-03T09:39:27.309Z,2577.00
2023-05-03T09:40:27.347Z,2652.00
2023-05-03T09:41:27.636Z,2796.00
2023-05-03T09:42:27.419Z,2977.00
2023-05-03T09:43:27.533Z,2984.00
2023-05-03T09:44:27.429Z,2973.00
2023-05-03T09:45:27.471Z,2883.00
2023-05-03T09:46:27.638Z,2799.00
2023-05-03T09:47:31.808Z,2630.00
2023-05-03T09:48:27.558Z,2391.00
2023-05-03T09:49:27.544Z,2211.00
2023-05-03T09:50:27.530Z,1939.00
2023-05-03T09:51:27.512Z,1750.00
2023-05-03T09:52:27.525Z,1602.00
2023-05-03T09:53:27.479Z,1384.00
2023-05-03T09:54:27.518Z,1260.00
2023-05-03T09:55:27.446Z,1187.00
2023-05-03T09:56:27.714Z,1141.00
2023-05-03T09:57:27.462Z,1023.00
2023-05-03T09:58:27.508Z,863.00
2023-05-03T09:59:27.460Z,779.00
2023-05-03T10:00:27.444Z,717.00
2023-05-03T10:01:27.803Z,648.00
2023-05-03T10:02:27.493Z,648.00
2023-05-03T10:03:27.514Z,780.00
2023-05-03T10:04:27.608Z,898.00
2023-05-03T10:05:27.494Z,940.00
2023-05-03T10:06:27.544Z,1033.00
2023-05-03T10:07:27.718Z,1090.00
2023-05-03T10:08:27.644Z,1132.00
2023-05-03T10:09:27.686Z,1166.00
2023-05-03T10:10:27.791Z,1176.00
2023-05-03T10:11:27.851Z,1415.00
2023-05-03T10:12:27.851Z,1747.00
2023-05-03T10:13:27.884Z,1768.00
2023-05-03T10:14:27.926Z,1709.00
2023-05-03T10:15:27.992Z,1511.00
2023-05-03T10:16:28.220Z,1412.00
2023-05-03T10:17:43.567Z,1541.00
2023-05-03T10:18:29.073Z,1547.00
2023-05-03T10:19:28.064Z,1564.00
2023-05-03T10:20:28.058Z,1437.00
2023-05-03T10:21:28.025Z,1248.00
2023-05-03T10:22:28.012Z,828.00
2023-05-03T10:23:28.022Z,657.00
2023-05-03T10:24:28.039Z,665.00
2023-05-03T10:25:28.033Z,637.00
2023-05-03T10:26:27.990Z,720.00
2023-05-03T10:27:28.013Z,768.00
2023-05-03T10:28:28.012Z,859.00
2023-05-03T10:29:27.978Z,958.00
2023-05-03T10:30:27.991Z,1026.00
2023-05-03T10:31:28.017Z,1072.00
2023-05-03T10:32:27.996Z,1043.00
2023-05-03T10:33:28.006Z,974.00
2023-05-03T10:34:28.092Z,916.00
2023-05-03T10:35:28.172Z,857.00
2023-05-03T10:36:38.383Z,809.00
2023-05-03T10:37:29.494Z,812.00
2023-05-03T10:38:28.476Z,891.00
2023-05-03T10:39:29.071Z,1112.00
2023-05-03T10:40:28.469Z,1520.00
2023-05-03T10:41:28.451Z,2121.00
2023-05-03T10:42:28.540Z,1441.00
2023-05-03T10:43:28.521Z,1623.00
2023-05-03T10:44:28.533Z,1725.00
2023-05-03T10:45:28.621Z,1718.00
2023-05-03T10:46:28.630Z,1714.00
2023-05-03T10:47:28.658Z,1603.00
2023-05-03T10:48:28.582Z,1379.00
2023-05-03T10:49:28.622Z,1160.00
2023-05-03T10:50:28.624Z,1078.00
2023-05-03T10:51:28.868Z,991.00
2023-05-03T10:52:28.689Z,980.00
2023-05-03T10:53:28.687Z,932.00
2023-05-03T10:54:28.721Z,952.00
2023-05-03T10:55:28.750Z,962.00
2023-05-03T10:56:28.761Z,993.00
2023-05-03T10:57:28.814Z,1029.00
2023-05-03T10:58:28.819Z,1057.00
2023-05-03T10:59:28.830Z,790.00
2023-05-03T11:00:28.935Z,702.00
2023-05-03T11:01:29.001Z,627.00
2023-05-03T11:02:29.099Z,586.00
2023-05-03T11:03:29.161Z,571.00
2023-05-03T11:04:31.572Z,592.00
2023-05-03T11:05:29.124Z,605.00
2023-05-03T11:06:29.120Z,661.00
2023-05-03T11:07:29.080Z,717.00
2023-05-03T11:08:29.098Z,747.00
2023-05-03T11:09:29.094Z,700.00
2023-05-03T11:10:29.061Z,658.00
2023-05-03T11:11:29.235Z,634.00
2023-05-03T11:12:29.076Z,610.00
2023-05-03T11:13:29.024Z,642.00
2023-05-03T11:14:29.028Z,653.00
2023-05-03T11:15:29.044Z,642.00
2023-05-03T11:16:29.294Z,660.00
2023-05-03T11:17:29.486Z,620.00
2023-05-03T11:18:29.040Z,590.00
2023-05-03T11:19:29.027Z,603.00
2023-05-03T11:20:29.027Z,644.00
2023-05-03T11:21:29.522Z,646.00
2023-05-03T11:22:28.997Z,621.00
2023-05-03T11:23:29.041Z,784.00
2023-05-03T11:24:28.991Z,996.00
2023-05-03T11:25:28.955Z,963.00
2023-05-03T11:26:29.207Z,1214.00
2023-05-03T11:27:28.942Z,949.00
2023-05-03T11:28:28.950Z,1140.00
2023-05-03T11:29:28.926Z,1310.00
2023-05-03T11:30:28.948Z,1982.00
2023-05-03T11:31:29.255Z,1883.00
2023-05-03T11:32:28.937Z,1515.00
2023-05-03T11:33:28.897Z,1417.00
2023-05-03T11:34:28.911Z,1331.00
2023-05-03T11:35:28.866Z,1263.00
2023-05-03T11:36:28.871Z,1153.00
2023-05-03T11:37:29.190Z,1079.00
2023-05-03T11:38:28.891Z,886.00
2023-05-03T11:39:28.836Z,760.00
2023-05-03T11:40:28.858Z,726.00
2023-05-03T11:41:28.832Z,829.00
2023-05-03T11:42:28.823Z,845.00
2023-05-03T11:43:28.864Z,987.00
2023-05-03T11:44:28.866Z,894.00
2023-05-03T11:45:28.799Z,791.00
2023-05-03T11:46:29.010Z,671.00
2023-05-03T11:47:28.871Z,663.00
2023-05-03T11:48:28.801Z,713.00
2023-05-03T11:49:28.771Z,629.00
2023-05-03T11:50:28.766Z,610.00
2023-05-03T11:51:28.760Z,648.00
2023-05-03T11:52:29.217Z,652.00
2023-05-03T11:53:28.724Z,622.00
2023-05-03T11:54:28.728Z,611.00
2023-05-03T11:55:28.701Z,617.00
2023-05-03T11:56:28.706Z,594.00
2023-05-03T11:57:28.726Z,585.00
2023-05-03T11:58:28.681Z,579.00
2023-05-03T11:59:28.695Z,620.00
2023-05-03T12:00:28.648Z,581.00
2023-05-03T12:01:28.770Z,572.00
2023-05-03T12:02:28.903Z,553.00
2023-05-03T12:03:31.596Z,540.00
2023-05-03T12:04:28.831Z,552.00
2023-05-03T12:05:29.247Z,564.00
2023-05-03T12:06:29.206Z,544.00
2023-05-03T12:07:29.636Z,1158.00
2023-05-03T12:08:30.082Z,1505.00
2023-05-03T12:09:29.438Z,943.00
2023-05-03T12:10:29.611Z,647.00
2023-05-03T12:11:32.147Z,598.00
2023-05-03T12:12:31.910Z,598.00
2023-05-03T12:13:29.896Z,535.00
2023-05-03T12:14:29.425Z,490.00
2023-05-03T12:15:29.970Z,498.00
2023-05-03T12:16:28.610Z,487.00
2023-05-03T12:17:28.707Z,474.00
2023-05-03T12:18:28.733Z,519.00
2023-05-03T12:21:17.101Z,501.00
2023-05-03T12:21:31.548Z,503.00
2023-05-03T12:22:30.658Z,502.00
2023-05-03T12:23:28.789Z,501.00
2023-05-03T12:24:28.999Z,519.00
2023-05-03T12:25:32.689Z,542.00
2023-05-03T12:26:29.624Z,502.00